Airfield :
LOGIN :

Register | Disclaimer

   EN    FR    IT 

 










Legend :    VFR   Marginal VFR   IFR   Intensive IFR   Very Intensive IFR
Visi :
Ceiling :
>= 8 km
>= 3000ft
5 to 8 km
1000 to 3000 ft
1500m to 5 km
500 to 1000 ft
800 to 1500m
200 to 500 ft
< 800m
< 200 ft
Symbols :   Thunderstorms  Fog  Heavy snow  Heavy precipitations  Wind > 20 kt
SIGMETs :     Misc.  Thunderstorms  Icing  Turbulence  Mountain Waves  Volcanic Ashes






- Airport Elevation : 158 ft
- IATA code : QAR


EHDL - Deelen Airbase

CURRENT METAR :
  • 071525Z AUTO 20008KT 130V260 9999 FEW036 OVC043 17/09 Q1018 BLU

EXPIRED METARs :
  • 071455Z AUTO 20009KT 130V280 9999 BKN035 BKN039 OVC045 17/09 Q1018 BLU
  • 071425Z AUTO 21010KT 140V270 9999 BKN036 BKN044 OVC048 18/09 Q1019 BLU
  • 071355Z AUTO 22012KT 150V270 9999 BKN036 BKN049 BKN260 17/09 Q1019 BLU
  • 071325Z AUTO VRB13KT 9999 OVC360 18/08 Q1020 BLU
  • 071255Z AUTO 20012KT 150V300 9999 BKN360 18/08 Q1020 BLU

Expired Forecast.



MET'MAP, your aeronautical weather chart ! - Copyright ORBIFLY December 2007 - Disclaimer

ORBIFLY MET'MAP TEAM :

Programming & Development : Alexandra Zaïnal
Original concept : Baudouin d'Aumeries
Technical & hardware support : Manuel Goepfert
Assistance : Marc-Olivier Méhu




SOURCES & CREDITS :

   NOAA